sensor_id;sensor_type;location;lat;lon;timestamp;temperature;humidity
63289;DHT22;49412;48.162;-1.978;2023-04-16T00:02:00;8.80;99.90
63289;DHT22;49412;48.162;-1.978;2023-04-16T00:04:25;8.60;99.90
63289;DHT22;49412;48.162;-1.978;2023-04-16T00:06:51;8.60;99.90
63289;DHT22;49412;48.162;-1.978;2023-04-16T00:09:17;8.70;99.90
63289;DHT22;49412;48.162;-1.978;2023-04-16T00:11:42;8.70;99.90
63289;DHT22;49412;48.162;-1.978;2023-04-16T00:14:08;8.80;99.90
63289;DHT22;49412;48.162;-1.978;2023-04-16T00:16:33;8.70;99.90
63289;DHT22;49412;48.162;-1.978;2023-04-16T00:18:59;8.30;99.90
63289;DHT22;49412;48.162;-1.978;2023-04-16T00:21:24;8.20;99.90
63289;DHT22;49412;48.162;-1.978;2023-04-16T00:23:50;8.50;99.90
63289;DHT22;49412;48.162;-1.978;2023-04-16T00:26:16;8.60;99.90
63289;DHT22;49412;48.162;-1.978;2023-04-16T00:28:42;8.40;99.90
63289;DHT22;49412;48.162;-1.978;2023-04-16T00:31:07;8.40;99.90
63289;DHT22;49412;48.162;-1.978;2023-04-16T00:33:33;8.60;99.90
63289;DHT22;49412;48.162;-1.978;2023-04-16T00:35:58;8.60;99.90
63289;DHT22;49412;48.162;-1.978;2023-04-16T00:38:24;8.70;99.90
63289;DHT22;49412;48.162;-1.978;2023-04-16T00:40:54;8.30;99.90
63289;DHT22;49412;48.162;-1.978;2023-04-16T00:43:22;7.90;99.90
63289;DHT22;49412;48.162;-1.978;2023-04-16T00:45:49;8.00;99.90
63289;DHT22;49412;48.162;-1.978;2023-04-16T00:48:15;8.40;99.90
63289;DHT22;49412;48.162;-1.978;2023-04-16T00:50:40;8.60;99.90
63289;DHT22;49412;48.162;-1.978;2023-04-16T00:53:06;8.60;99.90
63289;DHT22;49412;48.162;-1.978;2023-04-16T00:55:32;8.60;99.90
63289;DHT22;49412;48.162;-1.978;2023-04-16T00:57:57;8.50;99.90
63289;DHT22;49412;48.162;-1.978;2023-04-16T01:00:23;8.50;99.90
63289;DHT22;49412;48.162;-1.978;2023-04-16T01:02:50;8.30;99.90
63289;DHT22;49412;48.162;-1.978;2023-04-16T01:05:15;8.20;99.90
63289;DHT22;49412;48.162;-1.978;2023-04-16T01:07:41;8.10;99.90
63289;DHT22;49412;48.162;-1.978;2023-04-16T01:10:06;8.00;99.90
63289;DHT22;49412;48.162;-1.978;2023-04-16T01:12:32;7.70;99.90
63289;DHT22;49412;48.162;-1.978;2023-04-16T01:14:57;7.70;99.90
63289;DHT22;49412;48.162;-1.978;2023-04-16T01:17:23;8.00;99.90
63289;DHT22;49412;48.162;-1.978;2023-04-16T01:19:49;8.20;99.90
63289;DHT22;49412;48.162;-1.978;2023-04-16T01:22:14;8.40;99.90
63289;DHT22;49412;48.162;-1.978;2023-04-16T01:24:40;8.60;99.90
63289;DHT22;49412;48.162;-1.978;2023-04-16T01:27:06;8.60;99.90
63289;DHT22;49412;48.162;-1.978;2023-04-16T01:29:31;8.60;99.90
63289;DHT22;49412;48.162;-1.978;2023-04-16T01:31:57;8.60;99.90
63289;DHT22;49412;48.162;-1.978;2023-04-16T01:34:22;8.60;99.90
63289;DHT22;49412;48.162;-1.978;2023-04-16T01:36:48;8.50;99.90
63289;DHT22;49412;48.162;-1.978;2023-04-16T01:39:13;8.50;99.90
63289;DHT22;49412;48.162;-1.978;2023-04-16T01:41:40;8.30;99.90
63289;DHT22;49412;48.162;-1.978;2023-04-16T01:44:06;8.20;99.90
63289;DHT22;49412;48.162;-1.978;2023-04-16T01:46:32;8.00;99.90
63289;DHT22;49412;48.162;-1.978;2023-04-16T01:49:00;7.90;99.90
63289;DHT22;49412;48.162;-1.978;2023-04-16T01:51:26;7.90;99.90
63289;DHT22;49412;48.162;-1.978;2023-04-16T01:53:52;7.90;99.90
63289;DHT22;49412;48.162;-1.978;2023-04-16T01:56:18;7.90;99.90
63289;DHT22;49412;48.162;-1.978;2023-04-16T01:58:44;8.00;99.90
63289;DHT22;49412;48.162;-1.978;2023-04-16T02:01:10;8.10;99.90
63289;DHT22;49412;48.162;-1.978;2023-04-16T02:03:36;8.20;99.90
63289;DHT22;49412;48.162;-1.978;2023-04-16T02:06:02;8.10;99.90
63289;DHT22;49412;48.162;-1.978;2023-04-16T02:08:27;8.20;99.90
63289;DHT22;49412;48.162;-1.978;2023-04-16T02:10:54;8.20;99.90
63289;DHT22;49412;48.162;-1.978;2023-04-16T02:13:20;8.10;99.90
63289;DHT22;49412;48.162;-1.978;2023-04-16T02:15:46;8.00;99.90
63289;DHT22;49412;48.162;-1.978;2023-04-16T02:18:12;7.90;99.90
63289;DHT22;49412;48.162;-1.978;2023-04-16T02:20:45;8.00;99.90
63289;DHT22;49412;48.162;-1.978;2023-04-16T02:23:11;8.10;99.90
63289;DHT22;49412;48.162;-1.978;2023-04-16T02:25:38;8.00;99.90
63289;DHT22;49412;48.162;-1.978;2023-04-16T02:28:06;8.00;99.90
63289;DHT22;49412;48.162;-1.978;2023-04-16T02:30:32;8.00;99.90
63289;DHT22;49412;48.162;-1.978;2023-04-16T02:32:59;8.00;99.90
63289;DHT22;49412;48.162;-1.978;2023-04-16T02:35:26;8.00;99.90
63289;DHT22;49412;48.162;-1.978;2023-04-16T02:37:51;8.00;99.90
63289;DHT22;49412;48.162;-1.978;2023-04-16T02:40:17;8.00;99.90
63289;DHT22;49412;48.162;-1.978;2023-04-16T02:42:43;8.00;99.90
63289;DHT22;49412;48.162;-1.978;2023-04-16T02:45:08;8.10;99.90
63289;DHT22;49412;48.162;-1.978;2023-04-16T02:47:34;8.00;99.90
63289;DHT22;49412;48.162;-1.978;2023-04-16T02:50:00;8.10;99.90
63289;DHT22;49412;48.162;-1.978;2023-04-16T02:52:25;8.00;99.90
63289;DHT22;49412;48.162;-1.978;2023-04-16T02:54:51;8.00;99.90
63289;DHT22;49412;48.162;-1.978;2023-04-16T02:57:16;8.00;99.90
63289;DHT22;49412;48.162;-1.978;2023-04-16T02:59:42;8.00;99.90
63289;DHT22;49412;48.162;-1.978;2023-04-16T03:02:07;7.70;99.90
63289;DHT22;49412;48.162;-1.978;2023-04-16T03:04:33;7.30;99.90
63289;DHT22;49412;48.162;-1.978;2023-04-16T03:06:58;7.30;99.90
63289;DHT22;49412;48.162;-1.978;2023-04-16T03:09:24;7.50;99.90
63289;DHT22;49412;48.162;-1.978;2023-04-16T03:11:50;7.60;99.90
63289;DHT22;49412;48.162;-1.978;2023-04-16T03:14:15;7.30;99.90
63289;DHT22;49412;48.162;-1.978;2023-04-16T03:16:41;7.20;99.90
63289;DHT22;49412;48.162;-1.978;2023-04-16T03:19:07;7.20;99.90
63289;DHT22;49412;48.162;-1.978;2023-04-16T03:21:32;7.40;99.90
63289;DHT22;49412;48.162;-1.978;2023-04-16T03:23:58;7.60;99.90
63289;DHT22;49412;48.162;-1.978;2023-04-16T03:26:23;7.60;99.90
63289;DHT22;49412;48.162;-1.978;2023-04-16T03:28:49;7.50;99.90
63289;DHT22;49412;48.162;-1.978;2023-04-16T03:31:15;7.30;99.90
63289;DHT22;49412;48.162;-1.978;2023-04-16T03:33:41;7.00;99.90
63289;DHT22;49412;48.162;-1.978;2023-04-16T03:36:06;7.10;99.90
63289;DHT22;49412;48.162;-1.978;2023-04-16T03:38:32;7.20;99.90
63289;DHT22;49412;48.162;-1.978;2023-04-16T03:40:58;7.30;99.90
63289;DHT22;49412;48.162;-1.978;2023-04-16T03:43:23;7.10;99.90
63289;DHT22;49412;48.162;-1.978;2023-04-16T03:45:49;6.80;99.90
63289;DHT22;49412;48.162;-1.978;2023-04-16T03:48:15;7.00;99.90
63289;DHT22;49412;48.162;-1.978;2023-04-16T03:50:43;7.20;99.90
63289;DHT22;49412;48.162;-1.978;2023-04-16T03:53:09;7.20;99.90
63289;DHT22;49412;48.162;-1.978;2023-04-16T03:55:35;7.20;99.90
63289;DHT22;49412;48.162;-1.978;2023-04-16T03:58:01;7.20;99.90
63289;DHT22;49412;48.162;-1.978;2023-04-16T04:00:28;7.20;99.90
63289;DHT22;49412;48.162;-1.978;2023-04-16T04:02:53;7.10;99.90
63289;DHT22;49412;48.162;-1.978;2023-04-16T04:05:19;7.10;99.90
63289;DHT22;49412;48.162;-1.978;2023-04-16T04:07:45;7.00;99.90
63289;DHT22;49412;48.162;-1.978;2023-04-16T04:10:10;6.80;99.90
63289;DHT22;49412;48.162;-1.978;2023-04-16T04:12:36;6.70;99.90
63289;DHT22;49412;48.162;-1.978;2023-04-16T04:15:01;6.40;99.90
63289;DHT22;49412;48.162;-1.978;2023-04-16T04:17:27;5.60;99.90
63289;DHT22;49412;48.162;-1.978;2023-04-16T04:19:53;6.70;99.90
63289;DHT22;49412;48.162;-1.978;2023-04-16T04:22:18;6.80;99.90
63289;DHT22;49412;48.162;-1.978;2023-04-16T04:24:44;6.90;99.90
63289;DHT22;49412;48.162;-1.978;2023-04-16T04:27:09;6.90;99.90
63289;DHT22;49412;48.162;-1.978;2023-04-16T04:29:35;7.00;99.90
63289;DHT22;49412;48.162;-1.978;2023-04-16T04:32:01;6.80;99.90
63289;DHT22;49412;48.162;-1.978;2023-04-16T04:34:26;6.60;99.90
63289;DHT22;49412;48.162;-1.978;2023-04-16T04:36:52;6.60;99.90
63289;DHT22;49412;48.162;-1.978;2023-04-16T04:39:17;6.60;99.90
63289;DHT22;49412;48.162;-1.978;2023-04-16T04:41:46;6.40;99.90
63289;DHT22;49412;48.162;-1.978;2023-04-16T04:44:11;6.40;99.90
63289;DHT22;49412;48.162;-1.978;2023-04-16T04:46:37;6.70;99.90
63289;DHT22;49412;48.162;-1.978;2023-04-16T04:49:02;6.80;99.90
63289;DHT22;49412;48.162;-1.978;2023-04-16T04:51:28;6.80;99.90
63289;DHT22;49412;48.162;-1.978;2023-04-16T04:53:54;6.80;99.90
63289;DHT22;49412;48.162;-1.978;2023-04-16T04:56:19;6.80;99.90
63289;DHT22;49412;48.162;-1.978;2023-04-16T04:58:45;6.90;99.90
63289;DHT22;49412;48.162;-1.978;2023-04-16T05:01:11;6.80;99.90
63289;DHT22;49412;48.162;-1.978;2023-04-16T05:03:36;6.90;99.90
63289;DHT22;49412;48.162;-1.978;2023-04-16T05:06:02;6.90;99.90
63289;DHT22;49412;48.162;-1.978;2023-04-16T05:08:27;6.80;99.90
63289;DHT22;49412;48.162;-1.978;2023-04-16T05:10:53;6.70;99.90
63289;DHT22;49412;48.162;-1.978;2023-04-16T05:13:18;6.70;99.90
63289;DHT22;49412;48.162;-1.978;2023-04-16T05:15:44;6.70;99.90
63289;DHT22;49412;48.162;-1.978;2023-04-16T05:18:10;6.70;99.90
63289;DHT22;49412;48.162;-1.978;2023-04-16T05:20:35;6.60;99.90
63289;DHT22;49412;48.162;-1.978;2023-04-16T05:23:02;6.70;99.90
63289;DHT22;49412;48.162;-1.978;2023-04-16T05:25:27;6.60;99.90
63289;DHT22;49412;48.162;-1.978;2023-04-16T05:27:53;6.60;99.90
63289;DHT22;49412;48.162;-1.978;2023-04-16T05:30:19;6.60;99.90
63289;DHT22;49412;48.162;-1.978;2023-04-16T05:32:44;6.60;99.90
63289;DHT22;49412;48.162;-1.978;2023-04-16T05:35:10;6.60;99.90
63289;DHT22;49412;48.162;-1.978;2023-04-16T05:37:36;6.60;99.90
63289;DHT22;49412;48.162;-1.978;2023-04-16T05:40:01;6.70;99.90
63289;DHT22;49412;48.162;-1.978;2023-04-16T05:42:27;6.70;99.90
63289;DHT22;49412;48.162;-1.978;2023-04-16T05:44:53;6.70;99.90
63289;DHT22;49412;48.162;-1.978;2023-04-16T05:47:19;6.70;99.90
63289;DHT22;49412;48.162;-1.978;2023-04-16T05:49:44;6.60;99.90
63289;DHT22;49412;48.162;-1.978;2023-04-16T05:52:10;6.60;99.90
63289;DHT22;49412;48.162;-1.978;2023-04-16T05:54:35;6.80;99.90
63289;DHT22;49412;48.162;-1.978;2023-04-16T05:57:01;6.90;99.90
63289;DHT22;49412;48.162;-1.978;2023-04-16T05:59:26;7.20;99.90
63289;DHT22;49412;48.162;-1.978;2023-04-16T06:01:53;7.00;99.90
63289;DHT22;49412;48.162;-1.978;2023-04-16T06:04:19;7.10;99.90
63289;DHT22;49412;48.162;-1.978;2023-04-16T06:06:44;7.10;99.90
63289;DHT22;49412;48.162;-1.978;2023-04-16T06:09:10;7.10;99.90
63289;DHT22;49412;48.162;-1.978;2023-04-16T06:11:36;7.20;99.90
63289;DHT22;49412;48.162;-1.978;2023-04-16T06:14:01;7.20;99.90
63289;DHT22;49412;48.162;-1.978;2023-04-16T06:16:27;7.20;99.90
63289;DHT22;49412;48.162;-1.978;2023-04-16T06:18:52;7.40;99.90
63289;DHT22;49412;48.162;-1.978;2023-04-16T06:21:18;7.40;99.90
63289;DHT22;49412;48.162;-1.978;2023-04-16T06:23:44;7.50;99.90
63289;DHT22;49412;48.162;-1.978;2023-04-16T06:26:09;7.70;99.90
63289;DHT22;49412;48.162;-1.978;2023-04-16T06:28:35;8.20;99.90
63289;DHT22;49412;48.162;-1.978;2023-04-16T06:31:01;8.50;99.90
63289;DHT22;49412;48.162;-1.978;2023-04-16T06:33:26;9.00;99.90
63289;DHT22;49412;48.162;-1.978;2023-04-16T06:35:52;9.30;99.90
63289;DHT22;49412;48.162;-1.978;2023-04-16T06:38:17;9.60;99.90
63289;DHT22;49412;48.162;-1.978;2023-04-16T06:40:43;9.70;99.90
63289;DHT22;49412;48.162;-1.978;2023-04-16T06:43:09;9.90;99.90
63289;DHT22;49412;48.162;-1.978;2023-04-16T06:45:34;10.20;99.90
63289;DHT22;49412;48.162;-1.978;2023-04-16T06:48:00;10.20;99.90
63289;DHT22;49412;48.162;-1.978;2023-04-16T06:50:27;10.20;99.90
63289;DHT22;49412;48.162;-1.978;2023-04-16T06:52:53;10.40;99.90
63289;DHT22;49412;48.162;-1.978;2023-04-16T06:55:19;10.50;99.90
63289;DHT22;49412;48.162;-1.978;2023-04-16T06:57:44;10.80;99.90
63289;DHT22;49412;48.162;-1.978;2023-04-16T07:00:10;10.90;99.90
63289;DHT22;49412;48.162;-1.978;2023-04-16T07:02:36;11.00;99.90
63289;DHT22;49412;48.162;-1.978;2023-04-16T07:05:02;11.20;99.90
63289;DHT22;49412;48.162;-1.978;2023-04-16T07:07:27;11.40;99.90
63289;DHT22;49412;48.162;-1.978;2023-04-16T07:09:53;11.50;99.90
63289;DHT22;49412;48.162;-1.978;2023-04-16T07:12:18;11.60;99.90
63289;DHT22;49412;48.162;-1.978;2023-04-16T07:14:45;12.10;99.90
63289;DHT22;49412;48.162;-1.978;2023-04-16T07:17:10;12.60;99.90
63289;DHT22;49412;48.162;-1.978;2023-04-16T07:19:36;12.90;99.90
63289;DHT22;49412;48.162;-1.978;2023-04-16T07:22:02;13.00;99.90
63289;DHT22;49412;48.162;-1.978;2023-04-16T07:24:28;13.00;99.90
63289;DHT22;49412;48.162;-1.978;2023-04-16T07:26:53;13.60;99.90
63289;DHT22;49412;48.162;-1.978;2023-04-16T07:29:19;14.00;99.90
63289;DHT22;49412;48.162;-1.978;2023-04-16T07:31:44;14.80;99.90
63289;DHT22;49412;48.162;-1.978;2023-04-16T07:34:10;15.50;99.90
63289;DHT22;49412;48.162;-1.978;2023-04-16T07:36:37;16.30;99.90
63289;DHT22;49412;48.162;-1.978;2023-04-16T07:39:03;16.60;99.90
63289;DHT22;49412;48.162;-1.978;2023-04-16T07:41:28;17.70;99.90
63289;DHT22;49412;48.162;-1.978;2023-04-16T07:43:54;18.80;99.90
63289;DHT22;49412;48.162;-1.978;2023-04-16T07:46:20;19.90;99.90
63289;DHT22;49412;48.162;-1.978;2023-04-16T07:48:46;20.60;99.90
63289;DHT22;49412;48.162;-1.978;2023-04-16T07:51:11;20.90;99.90
63289;DHT22;49412;48.162;-1.978;2023-04-16T07:53:37;21.40;99.90
63289;DHT22;49412;48.162;-1.978;2023-04-16T07:56:02;22.10;99.90
63289;DHT22;49412;48.162;-1.978;2023-04-16T07:58:28;22.60;99.90
63289;DHT22;49412;48.162;-1.978;2023-04-16T08:00:54;23.80;99.90
63289;DHT22;49412;48.162;-1.978;2023-04-16T08:03:19;24.00;99.90
63289;DHT22;49412;48.162;-1.978;2023-04-16T08:05:45;21.70;99.90
63289;DHT22;49412;48.162;-1.978;2023-04-16T08:08:10;19.20;99.90
63289;DHT22;49412;48.162;-1.978;2023-04-16T08:10:36;18.30;99.90
63289;DHT22;49412;48.162;-1.978;2023-04-16T08:13:02;17.50;99.90
63289;DHT22;49412;48.162;-1.978;2023-04-16T08:15:28;17.60;99.90
63289;DHT22;49412;48.162;-1.978;2023-04-16T08:17:54;18.90;99.90
63289;DHT22;49412;48.162;-1.978;2023-04-16T08:20:19;20.00;99.90
63289;DHT22;49412;48.162;-1.978;2023-04-16T08:22:45;20.60;99.90
63289;DHT22;49412;48.162;-1.978;2023-04-16T08:25:10;22.40;99.90
63289;DHT22;49412;48.162;-1.978;2023-04-16T08:27:36;24.40;99.90
63289;DHT22;49412;48.162;-1.978;2023-04-16T08:30:02;25.40;99.90
63289;DHT22;49412;48.162;-1.978;2023-04-16T08:32:27;25.90;99.90
63289;DHT22;49412;48.162;-1.978;2023-04-16T08:34:53;25.90;99.90
63289;DHT22;49412;48.162;-1.978;2023-04-16T08:37:18;24.90;99.90
63289;DHT22;49412;48.162;-1.978;2023-04-16T08:39:44;24.30;99.90
63289;DHT22;49412;48.162;-1.978;2023-04-16T08:42:53;24.60;99.90
63289;DHT22;49412;48.162;-1.978;2023-04-16T08:45:07;26.10;99.90
63289;DHT22;49412;48.162;-1.978;2023-04-16T08:47:34;25.80;99.90
63289;DHT22;49412;48.162;-1.978;2023-04-16T08:50:01;25.70;99.90
63289;DHT22;49412;48.162;-1.978;2023-04-16T08:52:27;26.50;99.90
63289;DHT22;49412;48.162;-1.978;2023-04-16T08:57:37;24.80;99.90
63289;DHT22;49412;48.162;-1.978;2023-04-16T09:00:03;26.00;99.90
63289;DHT22;49412;48.162;-1.978;2023-04-16T09:02:30;23.80;99.90
63289;DHT22;49412;48.162;-1.978;2023-04-16T09:04:57;21.60;99.90
63289;DHT22;49412;48.162;-1.978;2023-04-16T09:07:24;20.70;99.90
63289;DHT22;49412;48.162;-1.978;2023-04-16T09:09:50;20.60;99.90
63289;DHT22;49412;48.162;-1.978;2023-04-16T09:12:17;19.80;99.90
63289;DHT22;49412;48.162;-1.978;2023-04-16T09:14:46;19.70;99.90
63289;DHT22;49412;48.162;-1.978;2023-04-16T09:17:12;19.70;99.90
63289;DHT22;49412;48.162;-1.978;2023-04-16T09:19:39;19.10;99.90
63289;DHT22;49412;48.162;-1.978;2023-04-16T09:22:04;18.50;99.90
63289;DHT22;49412;48.162;-1.978;2023-04-16T09:24:30;18.80;99.90
63289;DHT22;49412;48.162;-1.978;2023-04-16T09:26:56;18.70;99.90
63289;DHT22;49412;48.162;-1.978;2023-04-16T09:29:31;19.00;99.90
63289;DHT22;49412;48.162;-1.978;2023-04-16T09:32:04;19.30;99.90
63289;DHT22;49412;48.162;-1.978;2023-04-16T09:34:31;19.80;99.90
63289;DHT22;49412;48.162;-1.978;2023-04-16T09:37:12;20.20;99.90
63289;DHT22;49412;48.162;-1.978;2023-04-16T09:39:38;20.90;99.90
63289;DHT22;49412;48.162;-1.978;2023-04-16T09:42:04;22.60;99.90
63289;DHT22;49412;48.162;-1.978;2023-04-16T09:44:36;25.10;99.90
63289;DHT22;49412;48.162;-1.978;2023-04-16T09:47:06;26.40;99.90
63289;DHT22;49412;48.162;-1.978;2023-04-16T09:49:36;27.30;99.90
63289;DHT22;49412;48.162;-1.978;2023-04-16T09:52:08;27.30;99.90
63289;DHT22;49412;48.162;-1.978;2023-04-16T09:54:33;27.10;99.90
63289;DHT22;49412;48.162;-1.978;2023-04-16T09:56:59;26.80;99.90
63289;DHT22;49412;48.162;-1.978;2023-04-16T09:59:26;28.20;99.90
63289;DHT22;49412;48.162;-1.978;2023-04-16T10:01:57;28.90;99.90
63289;DHT22;49412;48.162;-1.978;2023-04-16T10:04:23;30.40;99.90
63289;DHT22;49412;48.162;-1.978;2023-04-16T10:07:01;33.50;99.90
63289;DHT22;49412;48.162;-1.978;2023-04-16T10:09:30;36.10;99.90
63289;DHT22;49412;48.162;-1.978;2023-04-16T10:11:56;37.20;99.90
63289;DHT22;49412;48.162;-1.978;2023-04-16T10:14:21;37.90;99.90
63289;DHT22;49412;48.162;-1.978;2023-04-16T10:16:47;36.60;99.90
63289;DHT22;49412;48.162;-1.978;2023-04-16T10:19:12;36.20;99.90
63289;DHT22;49412;48.162;-1.978;2023-04-16T10:21:38;37.00;99.90
63289;DHT22;49412;48.162;-1.978;2023-04-16T10:24:04;37.70;99.40
63289;DHT22;49412;48.162;-1.978;2023-04-16T10:26:30;39.40;98.60
63289;DHT22;49412;48.162;-1.978;2023-04-16T10:28:57;39.70;98.40
63289;DHT22;49412;48.162;-1.978;2023-04-16T10:31:22;37.10;99.50
63289;DHT22;49412;48.162;-1.978;2023-04-16T10:33:49;35.80;99.90
63289;DHT22;49412;48.162;-1.978;2023-04-16T10:36:15;35.00;99.90
63289;DHT22;49412;48.162;-1.978;2023-04-16T10:38:44;33.60;99.90
63289;DHT22;49412;48.162;-1.978;2023-04-16T10:41:11;31.70;99.90
63289;DHT22;49412;48.162;-1.978;2023-04-16T10:43:41;31.00;99.90
63289;DHT22;49412;48.162;-1.978;2023-04-16T10:46:16;32.70;99.90
63289;DHT22;49412;48.162;-1.978;2023-04-16T10:48:42;34.00;99.90
63289;DHT22;49412;48.162;-1.978;2023-04-16T10:51:07;32.50;99.90
63289;DHT22;49412;48.162;-1.978;2023-04-16T10:53:47;31.20;99.90
63289;DHT22;49412;48.162;-1.978;2023-04-16T10:56:12;34.20;99.90
63289;DHT22;49412;48.162;-1.978;2023-04-16T10:58:38;34.90;99.90
63289;DHT22;49412;48.162;-1.978;2023-04-16T11:01:11;36.60;99.90
63289;DHT22;49412;48.162;-1.978;2023-04-16T11:03:46;37.80;99.80
63289;DHT22;49412;48.162;-1.978;2023-04-16T11:06:16;39.20;98.80
63289;DHT22;49412;48.162;-1.978;2023-04-16T11:08:45;40.60;97.70
63289;DHT22;49412;48.162;-1.978;2023-04-16T11:11:11;40.10;98.10
63289;DHT22;49412;48.162;-1.978;2023-04-16T11:13:36;40.20;97.60
63289;DHT22;49412;48.162;-1.978;2023-04-16T11:16:03;38.50;98.60
63289;DHT22;49412;48.162;-1.978;2023-04-16T11:18:28;39.70;98.20
63289;DHT22;49412;48.162;-1.978;2023-04-16T11:20:54;39.60;97.80
63289;DHT22;49412;48.162;-1.978;2023-04-16T11:23:20;40.50;97.60
63289;DHT22;49412;48.162;-1.978;2023-04-16T11:25:45;40.80;97.30
63289;DHT22;49412;48.162;-1.978;2023-04-16T11:28:12;37.80;98.40
63289;DHT22;49412;48.162;-1.978;2023-04-16T11:30:37;37.70;99.70
63289;DHT22;49412;48.162;-1.978;2023-04-16T11:33:03;41.40;97.30
63289;DHT22;49412;48.162;-1.978;2023-04-16T11:35:29;41.30;96.60
63289;DHT22;49412;48.162;-1.978;2023-04-16T11:37:55;39.90;97.40
63289;DHT22;49412;48.162;-1.978;2023-04-16T11:40:21;40.60;96.70
63289;DHT22;49412;48.162;-1.978;2023-04-16T11:42:47;43.00;96.10
63289;DHT22;49412;48.162;-1.978;2023-04-16T11:45:12;42.90;95.50
63289;DHT22;49412;48.162;-1.978;2023-04-16T11:47:48;41.40;96.60
63289;DHT22;49412;48.162;-1.978;2023-04-16T11:52:45;40.80;97.00
63289;DHT22;49412;48.162;-1.978;2023-04-16T11:55:11;42.80;95.40
63289;DHT22;49412;48.162;-1.978;2023-04-16T11:57:36;42.40;95.40
63289;DHT22;49412;48.162;-1.978;2023-04-16T12:00:02;37.90;97.80
63289;DHT22;49412;48.162;-1.978;2023-04-16T12:02:36;35.10;99.90
63289;DHT22;49412;48.162;-1.978;2023-04-16T12:05:02;33.60;99.90
63289;DHT22;49412;48.162;-1.978;2023-04-16T12:07:28;38.80;98.70
63289;DHT22;49412;48.162;-1.978;2023-04-16T12:10:03;41.20;97.00
63289;DHT22;49412;48.162;-1.978;2023-04-16T12:12:30;40.20;97.70
63289;DHT22;49412;48.162;-1.978;2023-04-16T12:14:56;37.00;98.80
63289;DHT22;49412;48.162;-1.978;2023-04-16T12:17:24;34.90;99.90
63289;DHT22;49412;48.162;-1.978;2023-04-16T12:19:59;36.40;99.90
63289;DHT22;49412;48.162;-1.978;2023-04-16T12:22:28;38.10;99.40
63289;DHT22;49412;48.162;-1.978;2023-04-16T12:24:55;41.90;96.50
63289;DHT22;49412;48.162;-1.978;2023-04-16T12:27:21;45.80;94.10
63289;DHT22;49412;48.162;-1.978;2023-04-16T12:30:01;45.30;93.40
63289;DHT22;49412;48.162;-1.978;2023-04-16T12:32:26;45.20;93.80
63289;DHT22;49412;48.162;-1.978;2023-04-16T12:34:52;45.40;94.90
63289;DHT22;49412;48.162;-1.978;2023-04-16T12:37:18;45.70;92.90
63289;DHT22;49412;48.162;-1.978;2023-04-16T12:39:43;44.10;94.00
63289;DHT22;49412;48.162;-1.978;2023-04-16T12:42:09;43.50;94.30
63289;DHT22;49412;48.162;-1.978;2023-04-16T12:44:37;43.20;94.60
63289;DHT22;49412;48.162;-1.978;2023-04-16T12:47:02;43.70;94.70
63289;DHT22;49412;48.162;-1.978;2023-04-16T12:49:29;42.80;95.20
63289;DHT22;49412;48.162;-1.978;2023-04-16T12:51:55;42.80;94.70
63289;DHT22;49412;48.162;-1.978;2023-04-16T12:54:20;43.00;94.70
63289;DHT22;49412;48.162;-1.978;2023-04-16T12:56:46;41.90;95.40
63289;DHT22;49412;48.162;-1.978;2023-04-16T12:59:12;41.60;95.40
63289;DHT22;49412;48.162;-1.978;2023-04-16T13:01:37;40.50;96.50
63289;DHT22;49412;48.162;-1.978;2023-04-16T13:04:03;41.30;96.20
63289;DHT22;49412;48.162;-1.978;2023-04-16T13:06:29;40.20;96.60
63289;DHT22;49412;48.162;-1.978;2023-04-16T13:08:55;39.80;96.70
63289;DHT22;49412;48.162;-1.978;2023-04-16T13:11:21;39.30;97.00
63289;DHT22;49412;48.162;-1.978;2023-04-16T13:13:46;36.20;99.30
63289;DHT22;49412;48.162;-1.978;2023-04-16T13:16:12;35.50;99.90
63289;DHT22;49412;48.162;-1.978;2023-04-16T13:18:38;34.00;99.90
63289;DHT22;49412;48.162;-1.978;2023-04-16T13:21:04;32.10;99.90
63289;DHT22;49412;48.162;-1.978;2023-04-16T13:23:30;30.60;99.90
63289;DHT22;49412;48.162;-1.978;2023-04-16T13:25:55;30.20;99.90
63289;DHT22;49412;48.162;-1.978;2023-04-16T13:28:21;30.70;99.90
63289;DHT22;49412;48.162;-1.978;2023-04-16T13:30:47;31.20;99.90
63289;DHT22;49412;48.162;-1.978;2023-04-16T13:33:12;32.20;99.90
63289;DHT22;49412;48.162;-1.978;2023-04-16T13:35:38;31.50;99.90
63289;DHT22;49412;48.162;-1.978;2023-04-16T13:38:04;30.20;99.90
63289;DHT22;49412;48.162;-1.978;2023-04-16T13:40:29;29.10;99.90
63289;DHT22;49412;48.162;-1.978;2023-04-16T13:42:55;29.30;99.90
63289;DHT22;49412;48.162;-1.978;2023-04-16T13:45:21;33.00;99.90
63289;DHT22;49412;48.162;-1.978;2023-04-16T13:47:46;37.00;99.90
63289;DHT22;49412;48.162;-1.978;2023-04-16T13:50:12;39.60;98.60
63289;DHT22;49412;48.162;-1.978;2023-04-16T13:52:37;36.00;99.70
63289;DHT22;49412;48.162;-1.978;2023-04-16T13:55:03;30.50;99.90
63289;DHT22;49412;48.162;-1.978;2023-04-16T13:57:29;30.70;99.90
63289;DHT22;49412;48.162;-1.978;2023-04-16T13:59:55;33.80;99.90
63289;DHT22;49412;48.162;-1.978;2023-04-16T14:02:20;34.40;99.90
63289;DHT22;49412;48.162;-1.978;2023-04-16T14:04:46;34.60;99.90
63289;DHT22;49412;48.162;-1.978;2023-04-16T14:07:12;36.70;99.90
63289;DHT22;49412;48.162;-1.978;2023-04-16T14:09:38;38.30;99.40
63289;DHT22;49412;48.162;-1.978;2023-04-16T14:12:04;39.10;98.60
63289;DHT22;49412;48.162;-1.978;2023-04-16T14:14:30;39.10;98.50
63289;DHT22;49412;48.162;-1.978;2023-04-16T14:16:59;39.70;98.20
63289;DHT22;49412;48.162;-1.978;2023-04-16T14:19:25;39.20;98.00
63289;DHT22;49412;48.162;-1.978;2023-04-16T14:21:50;39.60;98.00
63289;DHT22;49412;48.162;-1.978;2023-04-16T14:24:16;39.20;98.00
63289;DHT22;49412;48.162;-1.978;2023-04-16T14:26:42;39.30;98.10
63289;DHT22;49412;48.162;-1.978;2023-04-16T14:29:07;38.20;98.50
63289;DHT22;49412;48.162;-1.978;2023-04-16T14:31:33;36.50;99.60
63289;DHT22;49412;48.162;-1.978;2023-04-16T14:33:58;35.30;99.90
63289;DHT22;49412;48.162;-1.978;2023-04-16T14:36:24;35.70;99.90
63289;DHT22;49412;48.162;-1.978;2023-04-16T14:38:50;37.10;99.30
63289;DHT22;49412;48.162;-1.978;2023-04-16T14:41:15;38.00;98.90
63289;DHT22;49412;48.162;-1.978;2023-04-16T14:43:41;38.10;98.70
63289;DHT22;49412;48.162;-1.978;2023-04-16T14:46:08;37.50;99.00
63289;DHT22;49412;48.162;-1.978;2023-04-16T14:48:34;38.00;98.60
63289;DHT22;49412;48.162;-1.978;2023-04-16T14:51:00;38.10;98.50
63289;DHT22;49412;48.162;-1.978;2023-04-16T14:53:25;36.10;99.60
63289;DHT22;49412;48.162;-1.978;2023-04-16T14:55:51;36.20;99.60
63289;DHT22;49412;48.162;-1.978;2023-04-16T14:58:17;35.80;99.80
63289;DHT22;49412;48.162;-1.978;2023-04-16T15:00:43;33.60;99.90
63289;DHT22;49412;48.162;-1.978;2023-04-16T15:03:09;33.30;99.90
63289;DHT22;49412;48.162;-1.978;2023-04-16T15:05:34;33.60;99.90
63289;DHT22;49412;48.162;-1.978;2023-04-16T15:08:00;33.50;99.90
63289;DHT22;49412;48.162;-1.978;2023-04-16T15:10:26;33.50;99.90
63289;DHT22;49412;48.162;-1.978;2023-04-16T15:12:52;32.70;99.90
63289;DHT22;49412;48.162;-1.978;2023-04-16T15:15:17;30.80;99.90
63289;DHT22;49412;48.162;-1.978;2023-04-16T15:17:43;29.60;99.90
63289;DHT22;49412;48.162;-1.978;2023-04-16T15:20:09;29.20;99.90
63289;DHT22;49412;48.162;-1.978;2023-04-16T15:22:34;29.70;99.90